createdAt,value
2018-04-08T00:00:37.317Z,14.40
2018-04-08T00:01:37.287Z,14.33
2018-04-08T00:02:37.287Z,14.36
2018-04-08T00:03:37.301Z,14.35
2018-04-08T00:04:58.323Z,14.32
2018-04-08T00:05:37.349Z,14.24
2018-04-08T00:06:37.284Z,14.21
2018-04-08T00:07:37.359Z,14.24
2018-04-08T00:08:37.308Z,14.20
2018-04-08T00:09:37.304Z,14.17
2018-04-08T00:10:58.289Z,14.10
2018-04-08T00:11:37.283Z,14.09
2018-04-08T00:12:37.285Z,14.06
2018-04-08T00:13:37.290Z,14.07
2018-04-08T00:14:37.297Z,14.15
2018-04-08T00:15:37.281Z,14.12
2018-04-08T00:16:58.295Z,14.10
2018-04-08T00:17:37.286Z,14.18
2018-04-08T00:18:37.371Z,14.14
2018-04-08T00:19:37.283Z,14.09
2018-04-08T00:20:37.271Z,14.09
2018-04-08T00:21:37.274Z,14.07
2018-04-08T00:22:58.281Z,14.00
2018-04-08T00:23:37.271Z,13.99
2018-04-08T00:24:37.272Z,13.99
2018-04-08T00:25:37.274Z,13.91
2018-04-08T00:26:37.267Z,13.92
2018-04-08T00:27:37.261Z,13.96
2018-04-08T00:28:58.264Z,13.96
2018-04-08T00:29:37.265Z,13.99
2018-04-08T00:30:37.256Z,13.96
2018-04-08T00:31:37.257Z,13.99
2018-04-08T00:32:37.261Z,14.02
2018-04-08T00:33:37.247Z,14.04
2018-04-08T00:34:58.269Z,14.07
2018-04-08T00:35:37.264Z,14.00
2018-04-08T00:36:37.250Z,14.07
2018-04-08T00:37:37.252Z,14.03
2018-04-08T00:38:37.246Z,14.03
2018-04-08T00:39:37.251Z,13.97
2018-04-08T00:40:58.257Z,13.96
2018-04-08T00:41:37.248Z,13.99
2018-04-08T00:42:37.242Z,13.99
2018-04-08T00:43:37.241Z,13.96
2018-04-08T00:44:37.240Z,13.84
2018-04-08T00:45:37.247Z,13.84
2018-04-08T00:46:58.262Z,13.78
2018-04-08T00:47:37.361Z,13.78
2018-04-08T00:48:37.238Z,13.75
2018-04-08T00:49:37.360Z,13.82
2018-04-08T00:50:37.236Z,13.79
2018-04-08T00:51:37.236Z,13.75
2018-04-08T00:52:58.354Z,13.88
2018-04-08T00:53:37.249Z,13.84
2018-04-08T00:54:37.236Z,13.89
2018-04-08T00:55:37.223Z,13.84
2018-04-08T00:56:37.226Z,13.75
2018-04-08T00:57:37.223Z,13.82
2018-04-08T00:58:58.229Z,13.71
2018-04-08T00:59:37.374Z,13.70
2018-04-08T01:00:37.229Z,13.69
2018-04-08T01:01:37.365Z,13.66
2018-04-08T01:02:37.228Z,13.69
2018-04-08T01:03:37.232Z,13.66
2018-04-08T01:04:58.230Z,13.57
2018-04-08T01:05:37.208Z,13.73
2018-04-08T01:06:37.214Z,13.71
2018-04-08T01:07:37.212Z,13.70
2018-04-08T01:08:37.215Z,13.63
2018-04-08T01:09:37.217Z,13.60
2018-04-08T01:10:58.208Z,13.57
2018-04-08T01:11:37.214Z,13.44
2018-04-08T01:12:37.216Z,13.45
2018-04-08T01:13:37.217Z,13.45
2018-04-08T01:14:37.202Z,13.48
2018-04-08T01:15:37.199Z,13.45
2018-04-08T01:16:58.212Z,13.45
2018-04-08T01:17:37.200Z,13.46
2018-04-08T01:18:37.194Z,13.51
2018-04-08T01:19:37.193Z,13.46
2018-04-08T01:20:37.202Z,13.49
2018-04-08T01:21:37.192Z,13.51
2018-04-08T01:22:58.206Z,13.41
2018-04-08T01:23:37.369Z,13.33
2018-04-08T01:24:37.194Z,13.38
2018-04-08T01:25:37.179Z,13.33
2018-04-08T01:26:37.366Z,13.23
2018-04-08T01:27:37.167Z,13.25
2018-04-08T01:28:58.190Z,13.25
2018-04-08T01:29:37.173Z,13.23
2018-04-08T01:30:37.180Z,13.25
2018-04-08T01:31:37.179Z,13.28
2018-04-08T01:32:37.162Z,13.28
2018-04-08T01:33:37.184Z,13.19
2018-04-08T01:34:58.179Z,13.15
2018-04-08T01:35:37.171Z,13.14
2018-04-08T01:36:37.182Z,13.15
2018-04-08T01:37:37.166Z,13.12
2018-04-08T01:38:37.161Z,13.17
2018-04-08T01:39:37.166Z,13.15
2018-04-08T01:40:58.170Z,13.15
2018-04-08T01:41:37.163Z,13.11
2018-04-08T01:42:37.164Z,13.20
2018-04-08T01:43:37.154Z,13.19
2018-04-08T01:44:37.159Z,13.17
2018-04-08T01:45:37.153Z,13.11
2018-04-08T01:46:58.168Z,13.03
2018-04-08T01:47:37.153Z,13.08
2018-04-08T01:48:37.153Z,13.04
2018-04-08T01:49:37.152Z,13.00
2018-04-08T01:50:37.143Z,13.01
2018-04-08T01:51:37.137Z,12.96
2018-04-08T01:52:58.146Z,12.96
2018-04-08T01:53:37.147Z,12.92
2018-04-08T01:54:37.132Z,12.93
2018-04-08T01:55:37.141Z,12.87
2018-04-08T01:56:37.139Z,12.83
2018-04-08T01:57:37.135Z,12.93
2018-04-08T01:58:58.161Z,12.97
2018-04-08T01:59:37.132Z,12.90
2018-04-08T02:00:37.127Z,12.87
2018-04-08T02:01:37.128Z,13.01
2018-04-08T02:02:37.373Z,13.00
2018-04-08T02:03:37.130Z,13.00
2018-04-08T02:04:58.134Z,13.05
2018-04-08T02:05:37.119Z,12.86
2018-04-08T02:06:37.132Z,12.83
2018-04-08T02:07:37.118Z,12.86
2018-04-08T02:08:37.110Z,12.83
2018-04-08T02:09:37.120Z,12.78
2018-04-08T02:10:58.122Z,12.86
2018-04-08T02:11:37.112Z,12.78
2018-04-08T02:12:37.112Z,12.85
2018-04-08T02:13:37.366Z,12.85
2018-04-08T02:14:37.106Z,12.87
2018-04-08T02:15:37.111Z,12.85
2018-04-08T02:16:58.113Z,12.86
2018-04-08T02:17:37.111Z,12.75
2018-04-08T02:18:37.096Z,12.72
2018-04-08T02:19:37.092Z,12.67
2018-04-08T02:20:37.100Z,12.70
2018-04-08T02:21:37.095Z,12.74
2018-04-08T02:22:58.103Z,12.74
2018-04-08T02:23:37.093Z,12.74
2018-04-08T02:24:37.089Z,12.72
2018-04-08T02:25:37.091Z,12.71
2018-04-08T02:26:37.086Z,12.74
2018-04-08T02:27:37.090Z,12.65
2018-04-08T02:28:58.091Z,12.65
2018-04-08T02:29:37.074Z,12.64
2018-04-08T02:30:37.083Z,12.68
2018-04-08T02:31:37.074Z,12.78
2018-04-08T02:32:37.076Z,12.75
2018-04-08T02:33:37.395Z,12.74
2018-04-08T02:34:58.075Z,12.74
2018-04-08T02:35:37.062Z,12.75
2018-04-08T02:36:37.067Z,12.72
2018-04-08T02:37:37.059Z,12.67
2018-04-08T02:38:37.056Z,12.65
2018-04-08T02:39:37.054Z,12.74
2018-04-08T02:40:58.092Z,12.67
2018-04-08T02:41:37.060Z,12.70
2018-04-08T02:42:37.061Z,12.77
2018-04-08T02:43:37.042Z,12.75
2018-04-08T02:44:37.051Z,12.72
2018-04-08T02:45:37.055Z,12.77
2018-04-08T02:46:58.051Z,12.74
2018-04-08T02:47:37.038Z,12.70
2018-04-08T02:48:37.046Z,12.67
2018-04-08T02:49:37.034Z,12.67
2018-04-08T02:50:37.031Z,12.71
2018-04-08T02:51:37.115Z,12.67
2018-04-08T02:52:58.044Z,12.65
2018-04-08T02:53:37.033Z,12.60
2018-04-08T02:54:37.031Z,12.62
2018-04-08T02:55:37.025Z,12.57
2018-04-08T02:56:37.028Z,12.60
2018-04-08T02:57:37.018Z,12.62
2018-04-08T02:58:58.043Z,12.53
2018-04-08T02:59:37.011Z,12.54
2018-04-08T03:00:37.017Z,12.52
2018-04-08T03:01:37.019Z,12.49
2018-04-08T03:02:37.011Z,12.42
2018-04-08T03:03:37.004Z,12.42
2018-04-08T03:04:58.012Z,12.35
2018-04-08T03:05:36.999Z,12.27
2018-04-08T03:06:37.001Z,12.24
2018-04-08T03:07:36.994Z,12.23
2018-04-08T03:08:37.002Z,12.27
2018-04-08T03:09:36.997Z,12.31
2018-04-08T03:10:57.998Z,12.23
2018-04-08T03:11:37.001Z,12.31
2018-04-08T03:12:36.989Z,12.17
2018-04-08T03:13:36.992Z,12.27
2018-04-08T03:14:36.984Z,12.31
2018-04-08T03:15:36.994Z,12.27
2018-04-08T03:16:57.995Z,12.32
2018-04-08T03:17:36.979Z,12.31
2018-04-08T03:18:36.972Z,12.35
2018-04-08T03:19:36.978Z,12.27
2018-04-08T03:20:36.980Z,12.28
2018-04-08T03:21:36.967Z,12.31
2018-04-08T03:22:57.981Z,12.27
2018-04-08T03:23:36.968Z,12.28
2018-04-08T03:24:36.962Z,12.31
2018-04-08T03:25:36.954Z,12.20
2018-04-08T03:26:36.960Z,12.20
2018-04-08T03:27:36.951Z,12.24
2018-04-08T03:28:57.964Z,12.23
2018-04-08T03:29:36.961Z,12.17
2018-04-08T03:30:36.952Z,12.14
2018-04-08T03:31:36.954Z,12.14
2018-04-08T03:32:36.946Z,12.17
2018-04-08T03:33:36.940Z,12.20
2018-04-08T03:34:57.942Z,12.23
2018-04-08T03:35:36.933Z,12.17
2018-04-08T03:36:36.929Z,12.23
2018-04-08T03:37:36.935Z,12.23
2018-04-08T03:38:36.962Z,12.14
2018-04-08T03:39:36.930Z,12.14
2018-04-08T03:40:57.939Z,12.17
2018-04-08T03:41:36.915Z,12.21
2018-04-08T03:42:36.925Z,12.14
2018-04-08T03:43:36.927Z,12.14
2018-04-08T03:44:36.910Z,12.09
2018-04-08T03:45:36.916Z,12.12
2018-04-08T03:46:57.934Z,12.16
2018-04-08T03:47:36.906Z,12.13
2018-04-08T03:48:36.910Z,12.19
2018-04-08T03:49:36.906Z,12.12
2018-04-08T03:50:36.903Z,12.05
2018-04-08T03:51:36.895Z,12.09
2018-04-08T03:52:57.907Z,12.04
2018-04-08T03:53:36.910Z,12.01
2018-04-08T03:54:36.898Z,12.02
2018-04-08T03:55:36.884Z,11.95
2018-04-08T03:56:36.882Z,11.96
2018-04-08T03:57:36.887Z,11.95
2018-04-08T03:58:57.883Z,11.98
2018-04-08T03:59:36.876Z,12.01
2018-04-08T04:00:36.877Z,11.96
2018-04-08T04:01:36.870Z,12.07
2018-04-08T04:02:36.865Z,12.07
2018-04-08T04:03:36.863Z,12.02
2018-04-08T04:04:57.873Z,12.05
2018-04-08T04:05:36.854Z,12.04
2018-04-08T04:06:36.848Z,12.02
2018-04-08T04:07:36.846Z,11.98
2018-04-08T04:08:36.860Z,11.98
2018-04-08T04:09:36.848Z,12.02
2018-04-08T04:10:57.854Z,11.98
2018-04-08T04:11:36.846Z,11.99
2018-04-08T04:12:36.845Z,12.02
2018-04-08T04:13:36.838Z,11.98
2018-04-08T04:14:36.832Z,11.94
2018-04-08T04:15:36.837Z,11.80
2018-04-08T04:16:57.834Z,11.88
2018-04-08T04:17:36.824Z,11.90
2018-04-08T04:18:36.830Z,11.86
2018-04-08T04:19:36.824Z,11.79
2018-04-08T04:20:36.816Z,11.79
2018-04-08T04:21:36.818Z,11.80
2018-04-08T04:22:57.814Z,11.82
2018-04-08T04:23:36.813Z,11.79
2018-04-08T04:24:36.808Z,11.82
2018-04-08T04:25:36.798Z,11.90
2018-04-08T04:26:36.801Z,11.83
2018-04-08T04:27:36.803Z,11.83
2018-04-08T04:28:57.811Z,11.78
2018-04-08T04:29:36.794Z,11.82
2018-04-08T04:30:36.797Z,11.73
2018-04-08T04:31:36.787Z,11.86
2018-04-08T04:32:36.785Z,11.78
2018-04-08T04:33:36.791Z,11.70
2018-04-08T04:34:57.787Z,11.79
2018-04-08T04:35:36.781Z,11.80
2018-04-08T04:36:36.778Z,11.80
2018-04-08T04:37:36.775Z,11.85
2018-04-08T04:38:36.763Z,11.82
2018-04-08T04:39:36.757Z,11.85
2018-04-08T04:40:57.774Z,11.83
2018-04-08T04:41:36.760Z,11.85
2018-04-08T04:42:36.759Z,11.78
2018-04-08T04:43:36.752Z,11.90
2018-04-08T04:44:36.749Z,11.82
2018-04-08T04:45:36.810Z,11.79
2018-04-08T04:46:57.759Z,11.86
2018-04-08T04:47:36.740Z,11.88
2018-04-08T04:48:36.735Z,11.91
2018-04-08T04:49:36.736Z,11.82
2018-04-08T04:50:36.737Z,11.82
2018-04-08T04:51:36.725Z,11.95
2018-04-08T04:52:57.734Z,11.90
2018-04-08T04:53:36.728Z,11.99
2018-04-08T04:54:36.726Z,12.04
2018-04-08T04:55:36.721Z,12.01
2018-04-08T04:56:36.715Z,11.94
2018-04-08T04:57:36.715Z,11.99
2018-04-08T04:58:57.720Z,11.99
2018-04-08T04:59:36.711Z,11.99
2018-04-08T05:00:36.712Z,11.99
2018-04-08T05:01:36.706Z,12.01
2018-04-08T05:02:36.700Z,12.05
2018-04-08T05:03:36.701Z,11.98
2018-04-08T05:04:57.714Z,12.04
2018-04-08T05:05:36.696Z,12.01
2018-04-08T05:06:36.691Z,12.07
2018-04-08T05:07:36.692Z,12.13
2018-04-08T05:08:36.679Z,12.13
2018-04-08T05:09:36.681Z,12.17
2018-04-08T05:10:57.681Z,12.17
2018-04-08T05:11:36.673Z,12.20
2018-04-08T05:12:36.666Z,12.20
2018-04-08T05:13:36.678Z,12.24
2018-04-08T05:14:36.677Z,12.34
2018-04-08T05:15:36.662Z,12.34
2018-04-08T05:16:57.671Z,12.27
2018-04-08T05:17:36.667Z,12.24
2018-04-08T05:18:36.655Z,12.28
2018-04-08T05:19:36.655Z,12.34
2018-04-08T05:20:36.642Z,12.32
2018-04-08T05:21:36.641Z,12.34
2018-04-08T05:22:57.657Z,12.53
2018-04-08T05:23:36.644Z,12.92
2018-04-08T05:24:36.636Z,13.15
2018-04-08T05:25:36.636Z,13.51
2018-04-08T05:26:36.641Z,14.12
2018-04-08T05:27:36.645Z,14.20
2018-04-08T05:28:57.638Z,14.50
2018-04-08T05:29:36.624Z,14.75
2018-04-08T05:30:36.625Z,14.78
2018-04-08T05:31:36.618Z,15.27
2018-04-08T05:32:36.635Z,15.13
2018-04-08T05:33:36.622Z,15.29
2018-04-08T05:34:57.631Z,15.43
2018-04-08T05:35:36.613Z,15.41
2018-04-08T05:36:36.604Z,15.25
2018-04-08T05:37:36.608Z,15.62
2018-04-08T05:38:36.612Z,15.47
2018-04-08T05:39:36.632Z,15.67
2018-04-08T05:40:57.665Z,15.56
2018-04-08T05:41:36.596Z,15.43
2018-04-08T05:42:36.598Z,15.74
2018-04-08T05:43:36.599Z,15.97
2018-04-08T05:44:36.598Z,15.90
2018-04-08T05:45:36.592Z,15.68
2018-04-08T05:46:57.602Z,16.09
2018-04-08T05:47:36.589Z,15.86
2018-04-08T05:48:36.597Z,15.89
2018-04-08T05:49:36.588Z,16.08
2018-04-08T05:50:36.588Z,15.49
2018-04-08T05:51:36.593Z,16.09
2018-04-08T05:52:57.593Z,16.33
2018-04-08T05:53:36.591Z,16.20
2018-04-08T05:54:36.585Z,16.58
2018-04-08T05:55:36.588Z,16.53
2018-04-08T05:56:36.605Z,16.23
2018-04-08T05:57:36.577Z,16.45
2018-04-08T05:58:57.597Z,16.46
2018-04-08T05:59:36.580Z,16.23
2018-04-08T06:00:36.572Z,16.68
2018-04-08T06:01:36.571Z,17.01
2018-04-08T06:02:36.573Z,16.86
2018-04-08T06:03:36.577Z,16.88
2018-04-08T06:04:57.581Z,17.34
2018-04-08T06:05:36.579Z,17.46
2018-04-08T06:06:36.577Z,17.79
2018-04-08T06:07:36.587Z,17.78
2018-04-08T06:08:36.576Z,17.97
2018-04-08T06:09:36.576Z,17.93
2018-04-08T06:10:57.585Z,18.15
2018-04-08T06:11:36.579Z,18.18
2018-04-08T06:12:36.576Z,18.20
2018-04-08T06:13:36.570Z,18.03
2018-04-08T06:14:36.573Z,17.51
2018-04-08T06:15:36.568Z,17.99
2018-04-08T06:16:57.586Z,17.48
2018-04-08T06:17:36.601Z,17.77
2018-04-08T06:18:36.584Z,17.99
2018-04-08T06:19:36.578Z,17.86
2018-04-08T06:20:36.588Z,18.11
2018-04-08T06:21:36.578Z,17.36
2018-04-08T06:22:57.568Z,18.23
2018-04-08T06:23:36.578Z,18.12
2018-04-08T06:24:36.573Z,17.90
2018-04-08T06:25:36.574Z,18.18
2018-04-08T06:26:36.589Z,18.00
2018-04-08T06:27:36.590Z,17.51
2018-04-08T06:28:57.604Z,17.68
2018-04-08T06:29:36.576Z,18.26
2018-04-08T06:30:36.571Z,18.65
2018-04-08T06:31:36.587Z,19.19
2018-04-08T06:32:36.585Z,19.68
2018-04-08T06:33:36.583Z,19.10
2018-04-08T06:34:57.600Z,18.32
2018-04-08T06:35:36.592Z,18.48
2018-04-08T06:36:36.590Z,18.85
2018-04-08T06:37:36.596Z,18.66
2018-04-08T06:38:36.592Z,18.67
2018-04-08T06:39:36.605Z,18.10
2018-04-08T06:40:57.608Z,17.93
2018-04-08T06:41:36.601Z,18.15
2018-04-08T06:42:36.603Z,18.65
2018-04-08T06:43:36.643Z,18.66
2018-04-08T06:44:36.606Z,19.00
2018-04-08T06:45:36.605Z,19.06
2018-04-08T06:46:57.619Z,19.63
2018-04-08T06:47:36.611Z,19.31
2018-04-08T06:48:36.613Z,19.56
2018-04-08T06:49:36.607Z,18.66
2018-04-08T06:50:36.613Z,18.42
2018-04-08T06:51:36.613Z,18.05
2018-04-08T06:52:57.628Z,18.67
2018-04-08T06:53:36.629Z,18.36
2018-04-08T06:54:36.624Z,18.63
2018-04-08T06:55:36.631Z,18.50
2018-04-08T06:56:36.636Z,18.63
2018-04-08T06:57:36.631Z,18.47
2018-04-08T06:58:57.645Z,18.39
2018-04-08T06:59:36.643Z,19.18
2018-04-08T07:00:36.635Z,18.92
2018-04-08T07:01:36.642Z,19.62
2018-04-08T07:02:36.644Z,19.66
2018-04-08T07:03:36.638Z,19.39
2018-04-08T07:04:57.655Z,19.39
2018-04-08T07:05:36.642Z,19.48
2018-04-08T07:06:36.651Z,19.36
2018-04-08T07:07:36.654Z,19.28
2018-04-08T07:08:36.650Z,19.86
2018-04-08T07:09:36.668Z,20.29
2018-04-08T07:10:57.673Z,20.28
2018-04-08T07:11:36.658Z,20.29
2018-04-08T07:12:36.663Z,19.83
2018-04-08T07:13:36.667Z,19.54
2018-04-08T07:14:36.674Z,19.44
2018-04-08T07:15:36.678Z,18.90
2018-04-08T07:16:57.684Z,18.95
2018-04-08T07:17:36.688Z,19.37
2018-04-08T07:18:36.687Z,19.83
2018-04-08T07:19:36.690Z,20.28
2018-04-08T07:20:36.687Z,20.39
2018-04-08T07:21:36.696Z,20.48
2018-04-08T07:22:57.713Z,21.16
2018-04-08T07:23:36.704Z,20.95
2018-04-08T07:24:36.755Z,20.69
2018-04-08T07:25:36.708Z,21.44
2018-04-08T07:26:36.713Z,21.21
2018-04-08T07:27:36.714Z,20.52
2018-04-08T07:28:57.726Z,20.24
2018-04-08T07:29:36.719Z,21.25
2018-04-08T07:30:36.735Z,21.35
2018-04-08T07:31:36.732Z,21.80
2018-04-08T07:32:36.776Z,20.88
2018-04-08T07:33:36.740Z,21.35
2018-04-08T07:34:57.748Z,21.28
2018-04-08T07:35:36.752Z,21.14
2018-04-08T07:36:36.750Z,21.40
2018-04-08T07:37:36.761Z,21.61
2018-04-08T07:38:37.156Z,20.48
2018-04-08T07:39:36.955Z,20.35
2018-04-08T07:40:58.061Z,18.63
2018-04-08T07:41:37.036Z,18.25
2018-04-08T07:42:37.145Z,17.36
2018-04-08T07:43:36.769Z,17.11
2018-04-08T07:44:36.811Z,16.31
2018-04-08T07:45:36.777Z,16.09
2018-04-08T07:46:57.800Z,15.90
2018-04-08T07:47:36.791Z,16.04
2018-04-08T07:48:36.788Z,15.84
2018-04-08T07:49:36.789Z,15.92
2018-04-08T07:50:36.799Z,16.09
2018-04-08T07:51:36.801Z,15.97
2018-04-08T07:52:57.844Z,15.53
2018-04-08T07:53:36.809Z,15.57
2018-04-08T07:54:36.807Z,15.39
2018-04-08T07:55:36.807Z,15.50
2018-04-08T07:56:36.812Z,15.72
2018-04-08T07:57:36.810Z,15.53
2018-04-08T07:58:57.827Z,15.67
2018-04-08T07:59:36.823Z,15.65
2018-04-08T08:00:36.819Z,15.74
2018-04-08T08:01:36.826Z,15.68
2018-04-08T08:02:36.832Z,15.72
2018-04-08T08:03:36.832Z,15.67
2018-04-08T08:04:57.832Z,15.69
2018-04-08T08:05:36.815Z,15.68
2018-04-08T08:06:36.825Z,15.86
2018-04-08T08:07:36.833Z,16.01
2018-04-08T08:08:36.829Z,15.78
2018-04-08T08:09:36.826Z,15.86
2018-04-08T08:10:57.839Z,15.84
2018-04-08T08:11:36.841Z,15.82
2018-04-08T08:12:36.838Z,15.86
2018-04-08T08:13:36.882Z,16.00
2018-04-08T08:14:36.829Z,15.97
2018-04-08T08:15:36.832Z,15.86
2018-04-08T08:16:57.846Z,15.87
2018-04-08T08:17:36.837Z,15.84
2018-04-08T08:18:36.840Z,15.78
2018-04-08T08:19:36.838Z,15.94
2018-04-08T08:20:36.833Z,16.07
2018-04-08T08:21:36.851Z,15.94
2018-04-08T08:22:57.870Z,16.01
2018-04-08T08:23:36.894Z,16.07
2018-04-08T08:24:36.845Z,16.05
2018-04-08T08:25:37.173Z,16.15
2018-04-08T08:26:37.042Z,16.11
2018-04-08T08:27:36.906Z,16.07
2018-04-08T08:28:57.938Z,16.11
2018-04-08T08:29:36.923Z,16.27
2018-04-08T08:30:36.973Z,16.17
2018-04-08T08:31:36.850Z,16.20
2018-04-08T08:32:36.853Z,16.24
2018-04-08T08:33:36.847Z,16.25
2018-04-08T08:34:57.856Z,16.21
2018-04-08T08:35:36.854Z,16.21
2018-04-08T08:36:36.843Z,16.24
2018-04-08T08:37:36.848Z,16.20
2018-04-08T08:38:36.850Z,16.12
2018-04-08T08:39:36.865Z,16.14
2018-04-08T08:40:57.857Z,16.27
2018-04-08T08:41:36.855Z,16.27
2018-04-08T08:42:36.849Z,16.28
2018-04-08T08:43:36.870Z,16.20
2018-04-08T08:44:36.862Z,16.15
2018-04-08T08:45:36.853Z,16.21
2018-04-08T08:46:57.871Z,16.30
2018-04-08T08:47:36.859Z,16.28
2018-04-08T08:48:36.862Z,16.30
2018-04-08T08:49:36.862Z,16.24
2018-04-08T08:50:36.859Z,16.27
2018-04-08T08:51:36.863Z,16.17
2018-04-08T08:52:57.871Z,16.17
2018-04-08T08:53:36.857Z,16.27
2018-04-08T08:54:36.851Z,16.25
2018-04-08T08:55:36.868Z,16.34
2018-04-08T08:56:36.858Z,16.39
2018-04-08T08:57:36.860Z,16.50
2018-04-08T08:58:57.877Z,16.57
2018-04-08T08:59:36.863Z,16.46
2018-04-08T09:00:36.866Z,16.46
2018-04-08T09:01:36.874Z,16.63
2018-04-08T09:02:36.897Z,16.70
2018-04-08T09:03:36.860Z,16.57
2018-04-08T09:04:57.890Z,16.63
2018-04-08T09:05:36.871Z,16.60
2018-04-08T09:06:36.913Z,16.67
2018-04-08T09:07:36.877Z,16.66
2018-04-08T09:08:36.872Z,16.93
2018-04-08T09:09:36.865Z,16.89
2018-04-08T09:10:57.870Z,16.94
2018-04-08T09:11:36.876Z,16.94
2018-04-08T09:12:36.872Z,16.89
2018-04-08T09:13:36.868Z,16.75
2018-04-08T09:14:36.867Z,16.89
2018-04-08T09:15:36.884Z,16.96
2018-04-08T09:16:57.870Z,17.08
2018-04-08T09:17:36.875Z,17.07
2018-04-08T09:18:36.872Z,17.01
2018-04-08T09:19:36.873Z,17.19
2018-04-08T09:20:36.869Z,17.22
2018-04-08T09:21:36.872Z,17.19
2018-04-08T09:22:57.885Z,17.08
2018-04-08T09:23:36.873Z,17.04
2018-04-08T09:24:36.870Z,16.96
2018-04-08T09:25:36.882Z,16.93
2018-04-08T09:26:36.886Z,17.00
2018-04-08T09:27:36.877Z,17.08
2018-04-08T09:28:57.892Z,17.19
2018-04-08T09:29:36.909Z,17.33
2018-04-08T09:30:36.881Z,17.19
2018-04-08T09:31:36.891Z,17.19
2018-04-08T09:32:36.880Z,17.38
2018-04-08T09:33:36.887Z,17.38
2018-04-08T09:34:57.886Z,17.43
2018-04-08T09:35:36.884Z,17.44
2018-04-08T09:36:36.886Z,17.48
2018-04-08T09:37:36.883Z,17.54
2018-04-08T09:38:36.880Z,17.58
2018-04-08T09:39:36.888Z,17.63
2018-04-08T09:40:57.893Z,17.70
2018-04-08T09:41:36.894Z,17.58
2018-04-08T09:42:36.887Z,17.68
2018-04-08T09:43:36.894Z,17.77
2018-04-08T09:44:36.888Z,17.70
2018-04-08T09:45:36.916Z,17.72
2018-04-08T09:46:57.903Z,17.78
2018-04-08T09:47:36.896Z,17.75
2018-04-08T09:48:36.892Z,17.71
2018-04-08T09:49:36.921Z,17.82
2018-04-08T09:50:36.900Z,17.95
2018-04-08T09:51:36.897Z,17.93
2018-04-08T09:52:57.907Z,18.00
2018-04-08T09:53:36.898Z,18.05
2018-04-08T09:54:36.897Z,18.08
2018-04-08T09:55:36.901Z,18.02
2018-04-08T09:56:36.905Z,18.07
2018-04-08T09:57:36.994Z,18.11
2018-04-08T09:58:57.913Z,18.11
2018-04-08T09:59:36.912Z,18.26
2018-04-08T10:00:36.900Z,18.27
2018-04-08T10:01:36.895Z,18.20
2018-04-08T10:02:36.910Z,18.26
2018-04-08T10:03:36.909Z,18.32
2018-04-08T10:04:57.922Z,18.39
2018-04-08T10:05:36.990Z,18.42
2018-04-08T10:06:36.911Z,18.30
2018-04-08T10:07:36.908Z,18.29
2018-04-08T10:08:36.916Z,18.39
2018-04-08T10:09:36.916Z,18.48
2018-04-08T10:10:57.929Z,18.62
2018-04-08T10:11:36.921Z,18.67
2018-04-08T10:12:36.923Z,18.69
2018-04-08T10:13:36.924Z,18.73
2018-04-08T10:14:36.929Z,18.75
2018-04-08T10:15:36.917Z,18.69
2018-04-08T10:16:57.937Z,18.88
2018-04-08T10:17:36.972Z,18.85
2018-04-08T10:18:36.928Z,18.98
2018-04-08T10:19:36.933Z,18.91
2018-04-08T10:20:36.935Z,18.95
2018-04-08T10:21:36.938Z,19.06
2018-04-08T10:22:57.937Z,18.87
2018-04-08T10:23:36.937Z,19.06
2018-04-08T10:24:36.934Z,19.14
2018-04-08T10:25:36.933Z,19.13
2018-04-08T10:26:36.941Z,19.13
2018-04-08T10:27:36.941Z,19.11
2018-04-08T10:28:58.030Z,19.00
2018-04-08T10:29:36.948Z,18.98
2018-04-08T10:30:36.942Z,18.99
2018-04-08T10:31:36.952Z,19.11
2018-04-08T10:32:36.955Z,19.11
2018-04-08T10:33:36.953Z,19.11
2018-04-08T10:34:57.965Z,19.32
2018-04-08T10:35:36.950Z,19.39
2018-04-08T10:36:36.964Z,19.50
2018-04-08T10:37:36.957Z,19.37
2018-04-08T10:38:37.052Z,19.40
2018-04-08T10:39:36.964Z,19.43
2018-04-08T10:40:57.971Z,19.37
2018-04-08T10:41:36.969Z,19.40
2018-04-08T10:42:36.971Z,19.36
2018-04-08T10:43:36.980Z,19.50
2018-04-08T10:44:36.986Z,19.59
2018-04-08T10:45:37.002Z,19.62
2018-04-08T10:46:57.983Z,19.73
2018-04-08T10:47:36.974Z,19.71
2018-04-08T10:48:37.016Z,19.66
2018-04-08T10:49:37.023Z,19.69
2018-04-08T10:50:36.984Z,19.65
2018-04-08T10:51:37.030Z,19.77
2018-04-08T10:52:57.997Z,19.76
2018-04-08T10:53:36.985Z,19.81
2018-04-08T10:54:36.992Z,19.80
2018-04-08T10:55:36.990Z,19.78
2018-04-08T10:56:37.002Z,19.92
2018-04-08T10:57:37.004Z,19.84
2018-04-08T10:58:58.012Z,19.81
2018-04-08T10:59:36.998Z,19.74
2018-04-08T11:00:37.050Z,19.78
2018-04-08T11:01:37.028Z,19.87
2018-04-08T11:02:37.008Z,19.88
2018-04-08T11:03:37.016Z,19.98
2018-04-08T11:04:58.053Z,20.02
2018-04-08T11:05:37.016Z,20.05
2018-04-08T11:06:37.020Z,20.16
2018-04-08T11:07:37.012Z,20.28
2018-04-08T11:08:37.024Z,20.24
2018-04-08T11:09:37.024Z,20.31
2018-04-08T11:10:58.049Z,20.36
2018-04-08T11:11:37.031Z,20.26
2018-04-08T11:12:37.036Z,20.29
2018-04-08T11:13:37.034Z,20.29
2018-04-08T11:14:37.034Z,20.29
2018-04-08T11:15:37.040Z,20.16
2018-04-08T11:16:58.072Z,20.23
2018-04-08T11:17:37.097Z,20.10
2018-04-08T11:18:37.072Z,20.23
2018-04-08T11:19:37.068Z,20.36
2018-04-08T11:20:37.059Z,20.31
2018-04-08T11:21:37.063Z,20.23
2018-04-08T11:22:58.063Z,20.38
2018-04-08T11:23:37.060Z,20.39
2018-04-08T11:24:37.057Z,20.39
2018-04-08T11:25:37.065Z,20.26
2018-04-08T11:26:37.059Z,20.24
2018-04-08T11:27:37.064Z,20.26
2018-04-08T11:28:58.076Z,20.26
2018-04-08T11:29:37.073Z,20.28
2018-04-08T11:30:37.075Z,20.29
2018-04-08T11:31:37.124Z,20.33
2018-04-08T11:32:37.086Z,20.18
2018-04-08T11:33:37.077Z,20.41
2018-04-08T11:34:58.101Z,20.47
2018-04-08T11:35:37.091Z,20.52
2018-04-08T11:36:37.098Z,20.62
2018-04-08T11:37:37.084Z,20.73
2018-04-08T11:38:37.109Z,20.85
2018-04-08T11:39:37.100Z,20.95
2018-04-08T11:40:58.117Z,20.88
2018-04-08T11:41:37.103Z,20.80
2018-04-08T11:42:37.108Z,20.89
2018-04-08T11:43:37.106Z,20.80
2018-04-08T11:44:37.119Z,20.89
2018-04-08T11:45:37.115Z,20.88
2018-04-08T11:46:58.126Z,20.77
2018-04-08T11:47:37.116Z,20.94
2018-04-08T11:48:37.132Z,20.98
2018-04-08T11:49:37.123Z,20.99
2018-04-08T11:50:37.124Z,21.09
2018-04-08T11:51:37.134Z,21.19
2018-04-08T11:52:58.147Z,21.03
2018-04-08T11:53:37.128Z,20.98
2018-04-08T11:54:37.152Z,20.88
2018-04-08T11:55:37.139Z,20.80
2018-04-08T11:56:37.148Z,20.87
2018-04-08T11:57:37.146Z,20.92
2018-04-08T11:58:58.154Z,20.89
2018-04-08T11:59:37.156Z,20.98
2018-04-08T12:00:37.148Z,21.14
2018-04-08T12:01:37.156Z,21.04
2018-04-08T12:02:37.170Z,21.10
2018-04-08T12:03:37.168Z,21.21
2018-04-08T12:04:58.176Z,21.21
2018-04-08T12:05:37.174Z,21.34
2018-04-08T12:06:37.168Z,21.28
2018-04-08T12:07:37.179Z,21.38
2018-04-08T12:08:37.181Z,21.27
2018-04-08T12:09:37.186Z,21.22
2018-04-08T12:10:58.200Z,21.27
2018-04-08T12:11:37.185Z,21.38
2018-04-08T12:12:37.194Z,21.31
2018-04-08T12:13:37.203Z,21.21
2018-04-08T12:14:37.202Z,21.07
2018-04-08T12:15:37.203Z,20.98
2018-04-08T12:16:58.219Z,21.03
2018-04-08T12:17:37.206Z,20.99
2018-04-08T12:18:37.228Z,21.01
2018-04-08T12:19:37.217Z,20.99
2018-04-08T12:20:37.220Z,21.07
2018-04-08T12:21:37.229Z,21.03
2018-04-08T12:22:58.236Z,21.27
2018-04-08T12:23:37.233Z,21.22
2018-04-08T12:24:37.240Z,21.10
2018-04-08T12:25:37.230Z,20.99
2018-04-08T12:26:37.237Z,21.12
2018-04-08T12:27:37.243Z,21.10
2018-04-08T12:28:58.252Z,21.17
2018-04-08T12:29:37.249Z,20.98
2018-04-08T12:30:37.245Z,21.10
2018-04-08T12:31:37.300Z,21.19
2018-04-08T12:32:37.263Z,21.25
2018-04-08T12:33:37.258Z,21.31
2018-04-08T12:34:58.279Z,21.31
2018-04-08T12:35:37.262Z,21.29
2018-04-08T12:36:37.269Z,21.31
2018-04-08T12:37:37.263Z,21.24
2018-04-08T12:38:37.268Z,21.28
2018-04-08T12:39:37.276Z,21.31
2018-04-08T12:40:58.293Z,21.27
2018-04-08T12:41:37.291Z,21.32
2018-04-08T12:42:37.280Z,21.37
2018-04-08T12:43:37.290Z,21.37
2018-04-08T12:44:37.300Z,21.37
2018-04-08T12:45:37.288Z,21.34
2018-04-08T12:46:58.313Z,21.35
2018-04-08T12:47:37.301Z,21.24
2018-04-08T12:48:37.300Z,21.21
2018-04-08T12:49:37.313Z,21.24
2018-04-08T12:50:37.319Z,21.17
2018-04-08T12:51:37.323Z,21.22
2018-04-08T12:52:58.333Z,21.17